Ampthill, VA

12:17 PM EDT on August 21, 2014 (GMT -0400)
Fernbrook | Change Station
CLOSE
Current Station
Personal Weather Station
Location: Richmond, VA
Elevation: 184 ft
Nearby Weather Stations

Elev 184 ft 37.44 °N, 77.56 °W | Updated 1 second ago

Scattered Clouds
Scattered Clouds
83.8 °F
Feels Like 92 °F
N
0.0
Wind Variable Wind from SSE
Gusts 0.0 mph

Today
High -- | Low -- °F
--% Chance of Precip.
Yesterday
High -- | Low -- °F
Precip. -- in
6:31 AM 7:54 PM
Waning Crescent, 13% visible
Pressure 30.05 in
Visibility 10.0 miles
Clouds Few 5000 ft
Scattered Clouds 25000 ft
Heat Index 92 °F
Dew Point 76 °F
Humidity 76%
Rainfall 0.02 in
Snow Depth Not available.
UV 8 out of 12
Pollen 9.30 out of 12
Ozone Good
PM2.5 Good
Flu Activity Not available.
METAR KRIC 211554Z 29004KT 10SM FEW050 SCT250 31/22 A3004 RMK AO2 SLP175 T03110217

More Conditions Fewer Conditions

Pressure 30.05 in
Visibility 10.0 miles
Clouds Few 5000 ft
Scattered Clouds 25000 ft
Heat Index 92 °F
Dew Point 76 °F
Humidity 76%
Rainfall 0.02 in
Snow Depth Not available.
UV 8 out of 12
Pollen 9.30 out of 12
Ozone Good
PM2.5 Good
Flu Activity Not available.
METAR KRIC 211554Z 29004KT 10SM FEW050 SCT250 31/22 A3004 RMK AO2 SLP175 T03110217

More Conditions Fewer Conditions

10-Day Weather Forecast

Almanac

Astronomy

Aug. 21, 2014 Rise Set
Actual Time 6:31 AM EDT 7:54 PM EDT
Civil Twilight 6:03 AM EDT 8:21 PM EDT
Nautical Twilight 5:30 AM EDT 8:54 PM EDT
Astronomical Twilight 4:56 AM EDT 9:28 PM EDT
Moon 3:01 AM EDT 5:19 PM EDT
Length of Visible Light 14h 18m
Length of Day
13h 23m
Tomorrow will be 2m 11s shorter.
Waning Crescent, 13% of the Moon is Illuminated
Today
Waning Crescent
Aug 25
New
Sep 2
First Quarter
Sep 8
Full
Sep 15
Last Quarter

Today's Extremes

State Highs State Lows

Community

WunderPhotos

Upload Photos

1,745,950 photos uploaded!

Nearby

Air Quality

  Air Quality AQ Index Pollutant
Yesterday Good
OZONE
Yesterday Good
PM2.5
Current Good
PM2.5
Current Good
OZONE
Thursday Moderate
OZONE
Thursday Good
PM2.5

Snow Depth

Station Depth Elevation
No new snow has been reported.

Earthquake Activity

City Distance Mag. Time & Date
No recent earthquake activity has been reported nearby.
Minimum magnitude displayed is 2.5.

Coastal Water Temperatures

Place Temperature
No Stations Reporting

Nearby Weather Stations